4M9

Corning Municipal Airport

Corning, Arkansas, USA
METAR K4M9 172035Z AUTO 36008KT 10SM CLR 22/09 A3034 RMK AO2 PWINO
Observed Flight Rules
Oct-17 @ 20:35 UTC (24 minutes ago) Visual Flight Rules
Wind Visibility Clouds
360° at 8 knots 10 miles
  • Clear skies
Temperatures Readings
Current 22°C / 72°F
Dewpoint 9°C / 48°F
Humidity 44%
Altimeter 30.34" Hg
Pressure 1027 hPa
Elevation 90
METAR K4M9 172035Z AUTO 36008KT 10SM CLR 22/09 A3034 RMK AO2 PWINO
Observed Flight Rules
Oct-17 @ 20:35 UTC
(24 minutes ago)
VFR
Wind Visibility
360° at 8 knots 10 miles
Clouds
  • Clear skies
Temperature Dewpoint
22°C / 72°F 9°C / 48°F
Humidity Altimeter Pressure
44% 30.34" Hg 1027 hPa